Time;durP1;ratioP1;P1;durP2;ratioP2;P2;SDS_P1;SDS_P2;PMS_P1;PMS_P2;Temp;Humidity;BMP_temperature;BMP_pressure;BME280_temperature;BME280_humidity;BME280_pressure;Samples;Min_cycle;Max_cycle;Signal;HPM_P1;HPM_P2
2023/12/20 00:00:58;;;;;;;46.03;20.52;;;6.90;99.90;;;;;;5026259;28;20090;-49
2023/12/20 00:03:24;;;;;;;45.78;18.33;;;6.90;99.90;;;;;;5043785;28;20033;-52
2023/12/20 00:05:50;;;;;;;55.92;19.85;;;6.90;99.90;;;;;;5044737;28;20108;-49
2023/12/20 00:08:16;;;;;;;42.75;17.15;;;6.90;99.90;;;;;;5042306;28;20571;-49
2023/12/20 00:10:41;;;;;;;41.30;16.60;;;6.90;99.90;;;;;;5045335;28;20029;-53
2023/12/20 00:13:07;;;;;;;42.95;16.35;;;6.90;99.90;;;;;;5043130;28;20021;-52
2023/12/20 00:15:33;;;;;;;28.98;12.85;;;6.90;99.90;;;;;;5044082;28;20123;-49
2023/12/20 00:18:00;;;;;;;23.77;11.68;;;6.90;99.90;;;;;;5026465;28;20025;-50
2023/12/20 00:20:26;;;;;;;28.63;11.85;;;6.90;99.90;;;;;;5044041;28;20049;-49
2023/12/20 00:22:53;;;;;;;24.27;11.20;;;6.80;99.90;;;;;;5045505;28;20210;-49
2023/12/20 00:25:19;;;;;;;23.02;12.25;;;6.80;99.90;;;;;;5042554;28;20022;-49
2023/12/20 00:27:44;;;;;;;27.77;12.13;;;6.70;99.90;;;;;;5044968;28;20468;-51
2023/12/20 00:30:10;;;;;;;31.00;11.27;;;6.70;99.90;;;;;;5042923;28;20024;-48
2023/12/20 00:32:36;;;;;;;31.10;10.63;;;6.70;99.90;;;;;;5045185;28;20482;-50
2023/12/20 00:35:02;;;;;;;21.00;9.00;;;6.70;99.90;;;;;;5044029;28;20036;-49
2023/12/20 00:37:27;;;;;;;21.38;7.45;;;6.70;99.90;;;;;;5042174;28;20100;-51
2023/12/20 00:39:53;;;;;;;16.95;7.45;;;6.60;99.90;;;;;;5045303;28;20025;-51
2023/12/20 00:42:19;;;;;;;14.32;6.32;;;6.60;99.90;;;;;;5043000;28;20057;-50
2023/12/20 00:44:44;;;;;;;18.73;6.40;;;6.50;99.90;;;;;;5045366;28;20540;-48
2023/12/20 00:47:10;;;;;;;14.73;6.50;;;6.50;99.90;;;;;;5042432;28;20096;-52
2023/12/20 00:49:35;;;;;;;15.02;5.82;;;6.50;99.90;;;;;;5045293;28;20029;-50
2023/12/20 00:52:01;;;;;;;19.17;6.97;;;6.50;99.90;;;;;;5026652;28;20024;-49
2023/12/20 00:54:27;;;;;;;16.58;6.50;;;6.50;99.90;;;;;;5044242;28;20075;-48
2023/12/20 00:56:52;;;;;;;15.32;6.80;;;6.50;99.90;;;;;;5044877;28;20071;-48
2023/12/20 00:59:19;;;;;;;13.43;6.38;;;6.50;99.90;;;;;;5040736;28;20581;-48
2023/12/20 01:01:44;;;;;;;17.88;6.80;;;6.40;99.90;;;;;;5033887;28;20123;-49
2023/12/20 01:04:10;;;;;;;22.90;7.35;;;6.40;99.90;;;;;;5042723;28;20537;-49
2023/12/20 01:06:36;;;;;;;14.38;6.18;;;6.40;99.90;;;;;;5032722;28;20021;-48
2023/12/20 01:09:01;;;;;;;27.42;6.78;;;6.40;99.90;;;;;;5026378;28;20061;-50
2023/12/20 01:11:27;;;;;;;14.02;5.88;;;6.30;99.90;;;;;;5032345;28;20231;-50
2023/12/20 01:13:53;;;;;;;17.35;5.65;;;6.30;99.90;;;;;;5045227;28;20474;-49
2023/12/20 01:16:18;;;;;;;19.35;5.68;;;6.30;99.90;;;;;;5031193;28;20025;-48
2023/12/20 01:18:44;;;;;;;14.65;5.43;;;6.20;99.90;;;;;;5045589;28;20032;-50
2023/12/20 01:21:10;;;;;;;17.48;5.13;;;6.20;99.90;;;;;;5043415;28;20028;-48
2023/12/20 01:23:36;;;;;;;28.58;5.85;;;6.20;99.90;;;;;;5045716;28;20025;-48
2023/12/20 01:26:02;;;;;;;13.10;4.82;;;6.10;99.90;;;;;;5043692;28;20043;-48
2023/12/20 01:28:28;;;;;;;31.63;6.65;;;6.10;99.90;;;;;;5043933;28;20070;-48
2023/12/20 01:30:53;;;;;;;33.65;5.28;;;6.00;99.90;;;;;;5045014;28;20096;-49
2023/12/20 01:33:19;;;;;;;13.88;4.22;;;6.00;99.90;;;;;;5043270;28;20072;-50
2023/12/20 01:35:45;;;;;;;27.17;5.40;;;6.00;99.90;;;;;;5026996;28;20025;-48
2023/12/20 01:38:10;;;;;;;17.77;4.68;;;6.00;99.90;;;;;;5025497;28;20033;-49
2023/12/20 01:40:36;;;;;;;26.13;5.10;;;6.00;99.90;;;;;;5045050;28;20029;-51
2023/12/20 01:43:08;;;;;;;19.83;4.97;;;6.00;99.90;;;;;;5044890;28;20108;-48
2023/12/20 01:45:35;;;;;;;8.68;4.13;;;5.90;99.90;;;;;;5044078;28;20040;-51
2023/12/20 01:48:02;;;;;;;30.08;6.07;;;5.90;99.90;;;;;;5044480;28;20059;-49
2023/12/20 01:50:28;;;;;;;40.55;7.43;;;5.90;99.90;;;;;;5044234;28;20036;-50
2023/12/20 01:52:57;;;;;;;33.80;5.72;;;5.90;99.90;;;;;;5038984;28;20033;-52
2023/12/20 01:55:24;;;;;;;31.75;6.05;;;5.90;99.90;;;;;;5028051;28;20505;-49
2023/12/20 01:57:51;;;;;;;27.30;5.63;;;5.80;99.90;;;;;;5028336;28;20064;-51
2023/12/20 02:00:17;;;;;;;25.23;5.25;;;5.80;99.90;;;;;;5036006;28;20189;-49
2023/12/20 02:02:45;;;;;;;39.42;7.53;;;5.80;99.90;;;;;;5035924;28;20044;-49
2023/12/20 02:05:11;;;;;;;28.02;5.80;;;5.80;99.90;;;;;;5041614;28;20332;-48
2023/12/20 02:07:36;;;;;;;27.25;5.53;;;5.70;99.90;;;;;;5045183;28;20536;-50
2023/12/20 02:10:04;;;;;;;31.65;5.63;;;5.70;99.90;;;;;;5044637;28;20028;-49
2023/12/20 02:12:30;;;;;;;29.27;5.97;;;5.70;99.90;;;;;;5044002;28;20033;-51
2023/12/20 02:14:55;;;;;;;22.60;5.15;;;5.70;99.90;;;;;;5014807;28;20051;-49
2023/12/20 02:17:22;;;;;;;26.50;6.93;;;5.70;99.90;;;;;;5027779;28;20090;-50
2023/12/20 02:19:49;;;;;;;30.73;6.03;;;5.70;99.90;;;;;;5028121;28;20014;-48
2023/12/20 02:22:14;;;;;;;35.03;6.22;;;5.70;99.90;;;;;;5026724;28;20767;-48
2023/12/20 02:24:40;;;;;;;27.63;6.63;;;5.70;99.90;;;;;;5028272;28;20166;-50
2023/12/20 02:27:07;;;;;;;28.60;6.88;;;5.70;99.90;;;;;;5014425;28;20053;-48
2023/12/20 02:29:33;;;;;;;47.10;7.40;;;5.80;99.90;;;;;;5027868;28;20037;-50
2023/12/20 02:31:59;;;;;;;17.98;6.15;;;5.80;99.90;;;;;;5034980;28;20368;-48
2023/12/20 02:34:25;;;;;;;15.38;4.85;;;5.80;99.90;;;;;;5043906;28;20021;-48
2023/12/20 02:36:50;;;;;;;24.42;6.22;;;5.80;99.90;;;;;;5045372;28;20036;-47
2023/12/20 02:39:16;;;;;;;34.33;7.28;;;5.80;99.90;;;;;;5043815;28;20040;-51
2023/12/20 02:41:42;;;;;;;29.00;6.55;;;5.80;99.90;;;;;;5045427;28;20537;-49
2023/12/20 02:44:07;;;;;;;37.35;7.95;;;5.80;99.90;;;;;;5044532;28;20029;-48
2023/12/20 02:46:33;;;;;;;36.20;7.10;;;5.80;99.90;;;;;;5044550;28;20460;-50
2023/12/20 02:48:58;;;;;;;40.33;7.68;;;5.70;99.90;;;;;;5045591;28;20028;-50
2023/12/20 02:51:24;;;;;;;28.60;7.82;;;5.70;99.90;;;;;;5044142;28;20094;-48
2023/12/20 02:53:49;;;;;;;27.92;7.32;;;5.70;99.90;;;;;;5045472;28;20021;-48
2023/12/20 02:56:15;;;;;;;37.50;8.13;;;5.60;99.90;;;;;;5043766;28;20029;-48
2023/12/20 02:58:41;;;;;;;38.22;7.68;;;5.60;99.90;;;;;;5045667;28;20029;-48
2023/12/20 03:01:06;;;;;;;26.50;6.68;;;5.50;99.90;;;;;;5031071;28;20060;-48
2023/12/20 03:03:32;;;;;;;21.85;5.85;;;5.50;99.90;;;;;;5049563;28;20212;-48
2023/12/20 03:06:00;;;;;;;35.08;7.03;;;5.40;99.90;;;;;;5049427;28;20351;-48
2023/12/20 03:08:25;;;;;;;43.80;7.05;;;5.40;99.90;;;;;;5046764;28;20025;-48
2023/12/20 03:10:51;;;;;;;26.00;7.03;;;5.30;99.90;;;;;;5044616;28;20051;-50
2023/12/20 03:13:16;;;;;;;26.70;6.47;;;5.30;99.90;;;;;;5049335;28;20021;-51
2023/12/20 03:15:42;;;;;;;39.38;6.88;;;5.30;99.90;;;;;;5049645;28;20114;-48
2023/12/20 03:18:08;;;;;;;46.63;7.15;;;5.30;99.90;;;;;;5031413;28;20027;-48
2023/12/20 03:20:34;;;;;;;25.38;6.30;;;5.20;99.90;;;;;;5020101;28;20468;-48
2023/12/20 03:23:00;;;;;;;30.30;6.43;;;5.20;99.90;;;;;;5031487;28;20022;-48
2023/12/20 03:25:26;;;;;;;34.67;6.55;;;5.10;99.90;;;;;;5029621;28;20026;-48
2023/12/20 03:27:52;;;;;;;48.70;7.65;;;5.10;99.90;;;;;;5031019;28;20245;-49
2023/12/20 03:30:18;;;;;;;30.98;7.70;;;5.10;99.90;;;;;;5031340;28;20052;-51
2023/12/20 03:32:43;;;;;;;20.20;5.88;;;5.10;99.90;;;;;;5031078;28;20053;-48
2023/12/20 03:35:09;;;;;;;32.70;7.15;;;5.10;99.90;;;;;;5031035;28;20040;-49
2023/12/20 03:37:35;;;;;;;37.72;7.65;;;5.10;99.90;;;;;;5030781;28;20075;-49
2023/12/20 03:40:01;;;;;;;26.08;6.53;;;5.10;99.90;;;;;;5031246;28;20067;-49
2023/12/20 03:42:27;;;;;;;25.83;6.72;;;5.10;99.90;;;;;;5015226;28;20128;-50
2023/12/20 03:44:52;;;;;;;22.55;6.13;;;5.10;99.90;;;;;;5031236;28;20108;-50
2023/12/20 03:47:18;;;;;;;26.20;6.70;;;5.20;99.90;;;;;;5008358;28;20060;-49
2023/12/20 03:49:43;;;;;;;29.70;6.95;;;5.20;99.90;;;;;;5030913;28;20526;-52
2023/12/20 03:52:09;;;;;;;35.90;8.52;;;5.10;99.90;;;;;;5030737;28;20031;-48
2023/12/20 03:54:37;;;;;;;27.83;6.75;;;5.10;99.90;;;;;;5030736;28;20018;-48
2023/12/20 03:57:04;;;;;;;31.55;8.68;;;5.10;99.90;;;;;;5030516;28;20083;-48
2023/12/20 03:59:30;;;;;;;36.83;8.48;;;5.10;99.90;;;;;;5030210;28;20057;-48
2023/12/20 04:01:55;;;;;;;32.17;7.70;;;5.10;99.90;;;;;;5030624;28;20026;-48
2023/12/20 04:04:21;;;;;;;45.53;9.25;;;5.00;99.90;;;;;;5030069;28;20029;-48
2023/12/20 04:06:47;;;;;;;32.42;7.65;;;5.00;99.90;;;;;;5029916;28;20514;-49
2023/12/20 04:09:12;;;;;;;38.13;7.90;;;5.00;99.90;;;;;;5030808;28;20060;-48
2023/12/20 04:11:38;;;;;;;37.40;8.02;;;5.00;99.90;;;;;;5029180;28;20037;-49
2023/12/20 04:14:07;;;;;;;32.40;9.63;;;4.90;99.90;;;;;;5030477;28;20029;-48
2023/12/20 04:16:32;;;;;;;45.88;8.25;;;4.90;99.90;;;;;;5026092;28;20045;-47
2023/12/20 04:18:58;;;;;;;44.28;8.00;;;4.90;99.90;;;;;;5028751;28;20021;-48
2023/12/20 04:21:24;;;;;;;32.00;6.68;;;4.90;99.90;;;;;;5029246;28;20032;-50
2023/12/20 04:23:49;;;;;;;31.00;7.55;;;4.90;99.90;;;;;;5029686;28;20022;-47
2023/12/20 04:26:16;;;;;;;31.58;7.47;;;4.80;99.90;;;;;;5011397;28;20038;-48
2023/12/20 04:28:42;;;;;;;33.33;5.72;;;4.80;99.90;;;;;;5029606;28;20476;-49
2023/12/20 04:31:08;;;;;;;26.50;5.25;;;4.80;99.90;;;;;;5029893;28;20023;-48
2023/12/20 04:33:33;;;;;;;22.33;5.85;;;4.80;99.90;;;;;;5030195;28;20018;-50
2023/12/20 04:36:00;;;;;;;24.95;5.35;;;4.80;99.90;;;;;;5029840;28;20057;-50
2023/12/20 04:38:26;;;;;;;29.58;5.15;;;4.80;99.90;;;;;;5030036;28;20028;-47
2023/12/20 04:40:51;;;;;;;30.27;4.47;;;4.70;99.90;;;;;;5030259;28;20021;-48
2023/12/20 04:43:17;;;;;;;28.55;5.05;;;4.80;99.90;;;;;;5028731;28;20030;-47
2023/12/20 04:45:43;;;;;;;25.50;5.25;;;4.80;99.90;;;;;;5029511;28;20091;-51
2023/12/20 04:48:08;;;;;;;22.02;4.97;;;4.80;99.90;;;;;;5029724;28;20028;-49
2023/12/20 04:50:34;;;;;;;23.77;4.40;;;4.80;99.90;;;;;;5029924;28;20028;-48
2023/12/20 04:53:00;;;;;;;28.25;5.28;;;4.80;99.90;;;;;;5029482;28;20022;-49
2023/12/20 04:55:25;;;;;;;36.05;5.20;;;4.80;99.90;;;;;;5028921;28;20113;-50
2023/12/20 04:57:51;;;;;;;25.65;4.93;;;4.80;99.90;;;;;;5029425;28;20021;-47
2023/12/20 05:00:17;;;;;;;27.50;4.70;;;4.80;99.90;;;;;;5029451;28;20617;-47
2023/12/20 05:02:43;;;;;;;29.23;4.45;;;4.80;99.90;;;;;;5029970;28;20022;-48
2023/12/20 05:05:08;;;;;;;19.10;4.00;;;4.80;99.90;;;;;;5029539;28;20433;-51
2023/12/20 05:07:34;;;;;;;24.85;5.07;;;4.80;99.90;;;;;;5011306;28;20032;-50
2023/12/20 05:10:00;;;;;;;17.70;3.50;;;4.80;99.90;;;;;;5029497;28;20013;-50
2023/12/20 05:12:25;;;;;;;30.55;4.03;;;4.80;99.90;;;;;;5029286;28;20013;-48
2023/12/20 05:14:52;;;;;;;26.00;4.93;;;4.90;99.90;;;;;;5029317;28;20013;-50
2023/12/20 05:17:20;;;;;;;20.38;4.78;;;4.80;99.90;;;;;;5029109;28;20172;-48
2023/12/20 05:19:46;;;;;;;15.60;3.60;;;4.80;99.90;;;;;;5029317;28;20026;-48
2023/12/20 05:22:11;;;;;;;32.05;5.43;;;4.90;99.90;;;;;;5028026;28;20116;-48
2023/12/20 05:24:37;;;;;;;15.35;3.50;;;4.90;99.90;;;;;;5028242;28;20510;-49
2023/12/20 05:27:03;;;;;;;30.17;4.18;;;4.80;99.90;;;;;;5027732;28;20025;-49
2023/12/20 05:29:28;;;;;;;26.27;4.00;;;4.80;99.90;;;;;;5029205;28;20486;-50
2023/12/20 05:31:54;;;;;;;20.70;4.10;;;4.90;99.90;;;;;;5029206;28;20014;-48
2023/12/20 05:34:20;;;;;;;26.45;4.88;;;4.90;99.90;;;;;;5029159;28;20434;-48
2023/12/20 05:36:45;;;;;;;23.20;4.10;;;4.80;99.90;;;;;;5028865;28;20017;-48
2023/12/20 05:39:11;;;;;;;25.27;4.22;;;4.90;99.90;;;;;;5029226;28;20103;-50
2023/12/20 05:41:37;;;;;;;23.13;5.45;;;4.80;99.90;;;;;;5027812;28;20075;-48
2023/12/20 05:44:02;;;;;;;24.00;5.22;;;4.90;99.90;;;;;;5028364;28;20459;-50
2023/12/20 05:46:28;;;;;;;32.38;4.90;;;4.90;99.90;;;;;;5027740;28;20057;-50
2023/12/20 05:48:54;;;;;;;20.48;4.57;;;5.00;99.90;;;;;;5010666;28;20494;-49
2023/12/20 05:51:19;;;;;;;18.88;4.55;;;5.00;99.90;;;;;;5029520;28;20024;-51
2023/12/20 05:53:45;;;;;;;25.73;4.38;;;5.00;99.90;;;;;;5029746;28;20021;-48
2023/12/20 05:56:11;;;;;;;14.52;3.70;;;5.00;99.90;;;;;;5028792;28;20029;-49
2023/12/20 05:58:37;;;;;;;15.77;3.80;;;5.20;99.90;;;;;;5028784;28;21350;-49
2023/12/20 06:01:07;;;;;;;15.13;4.63;;;5.20;99.90;;;;;;5029182;28;20443;-48
2023/12/20 06:03:33;;;;;;;26.20;4.25;;;5.30;99.90;;;;;;5030127;28;20082;-51
2023/12/20 06:06:00;;;;;;;19.50;3.47;;;5.40;99.90;;;;;;5028754;28;20486;-48
2023/12/20 06:08:26;;;;;;;14.38;4.13;;;5.40;99.90;;;;;;5029146;28;20435;-50
2023/12/20 06:10:51;;;;;;;9.95;3.17;;;5.50;99.90;;;;;;5029365;28;20096;-49
2023/12/20 06:13:17;;;;;;;20.10;5.00;;;5.50;99.90;;;;;;5030315;28;20431;-51
2023/12/20 06:15:42;;;;;;;19.58;3.83;;;5.60;99.90;;;;;;5029090;28;20109;-50
2023/12/20 06:18:08;;;;;;;21.45;4.05;;;5.60;99.90;;;;;;5030206;28;20559;-49
2023/12/20 06:20:34;;;;;;;18.58;4.13;;;5.60;99.90;;;;;;5030230;28;20304;-49
2023/12/20 06:22:59;;;;;;;14.52;3.40;;;5.60;99.90;;;;;;5011593;28;20079;-51
2023/12/20 06:25:25;;;;;;;15.75;3.45;;;5.70;99.90;;;;;;5028867;28;20030;-49
2023/12/20 06:27:50;;;;;;;22.75;4.03;;;5.70;99.90;;;;;;5029643;28;20096;-51
2023/12/20 06:30:16;;;;;;;22.35;4.20;;;5.70;99.90;;;;;;5030465;28;20026;-51
2023/12/20 06:32:42;;;;;;;11.73;3.55;;;5.70;99.90;;;;;;5030199;28;20028;-49
2023/12/20 06:35:09;;;;;;;13.75;3.38;;;5.80;99.90;;;;;;5027004;28;20076;-50
2023/12/20 06:37:35;;;;;;;18.95;3.92;;;5.80;99.90;;;;;;5028922;28;20070;-50
2023/12/20 06:40:01;;;;;;;17.83;4.72;;;5.80;99.90;;;;;;5029959;28;20105;-51
2023/12/20 06:42:27;;;;;;;13.82;3.55;;;5.80;99.90;;;;;;5011910;28;20413;-49
2023/12/20 06:44:52;;;;;;;22.67;4.03;;;5.80;99.90;;;;;;5029618;28;20155;-50
2023/12/20 06:47:18;;;;;;;15.75;3.30;;;5.80;99.90;;;;;;5030379;28;20014;-49
2023/12/20 06:49:44;;;;;;;17.42;4.00;;;5.80;99.90;;;;;;5030059;28;20053;-50
2023/12/20 06:52:10;;;;;;;15.43;3.80;;;5.80;99.90;;;;;;5028634;28;20026;-49
2023/12/20 06:54:35;;;;;;;20.33;3.70;;;5.90;99.90;;;;;;5030670;28;20057;-52
2023/12/20 06:57:02;;;;;;;20.77;5.13;;;5.90;99.90;;;;;;5029821;28;20030;-51
2023/12/20 06:59:28;;;;;;;23.88;5.03;;;5.90;99.90;;;;;;5030873;28;20022;-52
2023/12/20 07:01:54;;;;;;;31.95;4.75;;;5.90;99.90;;;;;;5028714;28;20029;-49
2023/12/20 07:04:21;;;;;;;30.77;5.28;;;6.00;99.90;;;;;;5030720;28;20176;-50
2023/12/20 07:06:48;;;;;;;18.55;4.95;;;6.00;99.90;;;;;;5022353;28;20036;-50
2023/12/20 07:09:14;;;;;;;24.42;4.10;;;6.00;99.90;;;;;;5009636;28;20036;-49
2023/12/20 07:11:39;;;;;;;13.50;4.43;;;6.00;99.90;;;;;;5029211;28;20025;-49
2023/12/20 07:14:05;;;;;;;21.92;4.55;;;5.90;99.90;;;;;;5027716;28;20479;-48
2023/12/20 07:16:31;;;;;;;27.20;4.93;;;6.00;99.90;;;;;;5029997;28;20065;-50
2023/12/20 07:18:56;;;;;;;20.58;4.43;;;6.00;99.90;;;;;;5028300;28;20079;-54
2023/12/20 07:21:23;;;;;;;21.15;3.75;;;6.00;99.90;;;;;;5029887;28;20549;-51
2023/12/20 07:23:48;;;;;;;21.38;4.32;;;6.00;99.90;;;;;;5027004;28;20048;-54
2023/12/20 07:26:14;;;;;;;19.85;3.42;;;6.00;99.90;;;;;;5026713;28;20427;-54
2023/12/20 07:28:40;;;;;;;12.98;3.50;;;6.10;99.90;;;;;;5028515;28;20028;-49
2023/12/20 07:31:06;;;;;;;14.85;3.78;;;6.10;99.90;;;;;;5030241;28;20014;-49
2023/12/20 07:33:31;;;;;;;12.95;4.15;;;6.10;99.90;;;;;;5031691;28;20501;-49
2023/12/20 07:35:59;;;;;;;16.23;4.13;;;6.10;99.90;;;;;;5028027;28;20538;-50
2023/12/20 07:38:24;;;;;;;16.48;4.22;;;6.10;99.90;;;;;;5031371;28;20030;-50
2023/12/20 07:40:50;;;;;;;24.75;4.22;;;6.10;99.90;;;;;;5026756;28;20041;-51
2023/12/20 07:43:16;;;;;;;23.25;4.50;;;6.10;99.90;;;;;;5026829;28;20021;-50
2023/12/20 07:45:41;;;;;;;16.15;4.07;;;6.20;99.90;;;;;;5029451;28;20025;-51
2023/12/20 07:48:07;;;;;;;23.65;5.18;;;6.20;99.90;;;;;;5033364;28;20395;-49
2023/12/20 07:50:33;;;;;;;16.02;4.43;;;6.10;99.90;;;;;;5034934;28;20406;-49
2023/12/20 07:53:00;;;;;;;19.25;5.40;;;6.10;99.90;;;;;;5033897;28;20021;-50
2023/12/20 07:55:26;;;;;;;19.88;5.32;;;6.10;99.90;;;;;;5035171;28;20021;-52
2023/12/20 07:57:52;;;;;;;30.50;5.55;;;6.10;99.90;;;;;;5034028;28;20103;-49
2023/12/20 08:00:18;;;;;;;20.58;3.80;;;6.10;99.90;;;;;;5034663;28;20072;-50
2023/12/20 08:02:43;;;;;;;14.50;4.85;;;6.20;99.90;;;;;;5035114;28;20025;-52
2023/12/20 08:05:09;;;;;;;15.45;5.13;;;6.20;99.90;;;;;;5016430;28;20028;-50
2023/12/20 08:07:35;;;;;;;20.65;4.72;;;6.10;99.90;;;;;;5033664;28;20064;-50
2023/12/20 08:10:00;;;;;;;26.17;5.05;;;6.20;99.90;;;;;;5034089;28;20060;-49
2023/12/20 08:12:27;;;;;;;15.52;4.05;;;6.20;99.90;;;;;;5035965;28;20029;-49
2023/12/20 08:14:54;;;;;;;20.33;4.00;;;6.20;99.90;;;;;;5034049;28;20021;-49
2023/12/20 08:17:19;;;;;;;18.05;4.03;;;6.20;99.90;;;;;;5032744;28;20029;-49
2023/12/20 08:19:45;;;;;;;17.92;4.00;;;6.20;99.90;;;;;;5016940;28;20032;-51
2023/12/20 08:22:11;;;;;;;16.17;4.80;;;6.20;99.90;;;;;;5031951;28;20022;-52
2023/12/20 08:24:37;;;;;;;18.70;3.85;;;6.20;99.90;;;;;;5036009;28;20028;-49
2023/12/20 08:27:03;;;;;;;10.43;3.45;;;6.20;99.90;;;;;;5033635;28;20055;-49
2023/12/20 08:29:28;;;;;;;13.93;4.47;;;6.20;99.90;;;;;;5034527;28;20522;-51
2023/12/20 08:31:55;;;;;;;22.02;4.00;;;6.20;99.90;;;;;;5034191;28;20045;-50
2023/12/20 08:34:21;;;;;;;17.92;4.63;;;6.30;99.90;;;;;;5034900;28;20026;-51
2023/12/20 08:36:46;;;;;;;22.13;4.30;;;6.30;99.90;;;;;;5034467;28;20033;-49
2023/12/20 08:39:12;;;;;;;18.80;4.47;;;6.30;99.90;;;;;;5034218;28;20307;-50
2023/12/20 08:41:38;;;;;;;13.20;3.83;;;6.30;99.90;;;;;;5036623;28;20406;-50
2023/12/20 08:44:03;;;;;;;19.35;4.53;;;6.30;99.90;;;;;;5034009;28;20029;-49
2023/12/20 08:46:29;;;;;;;16.05;5.28;;;6.30;99.90;;;;;;5035951;28;20033;-52
2023/12/20 08:48:55;;;;;;;20.15;4.13;;;6.40;99.90;;;;;;5034821;28;20020;-52
2023/12/20 08:51:22;;;;;;;19.45;4.40;;;6.50;99.90;;;;;;5035187;28;20032;-49
2023/12/20 08:53:49;;;;;;;16.88;4.85;;;6.50;99.90;;;;;;5034724;28;20501;-48
2023/12/20 08:56:15;;;;;;;19.65;4.57;;;6.50;99.90;;;;;;5033888;28;20022;-49
2023/12/20 08:58:40;;;;;;;18.20;4.18;;;6.50;99.90;;;;;;5035138;28;20032;-49
2023/12/20 09:01:07;;;;;;;17.73;5.10;;;6.40;99.90;;;;;;5016233;28;20041;-52
2023/12/20 09:03:33;;;;;;;17.77;4.18;;;6.50;99.90;;;;;;5036334;28;20544;-51
2023/12/20 09:05:58;;;;;;;13.70;4.38;;;6.50;99.90;;;;;;5033878;28;20108;-50
2023/12/20 09:08:24;;;;;;;15.32;3.40;;;6.50;99.90;;;;;;5035873;28;20021;-49
2023/12/20 09:10:50;;;;;;;15.63;3.75;;;6.50;99.90;;;;;;5034834;28;20052;-51
2023/12/20 09:13:15;;;;;;;23.85;4.28;;;6.50;99.90;;;;;;5034420;28;20022;-52
2023/12/20 09:15:41;;;;;;;22.27;4.00;;;6.50;99.90;;;;;;5032313;28;20139;-51
2023/12/20 09:18:07;;;;;;;14.68;3.78;;;6.60;99.90;;;;;;5034159;28;20372;-51
2023/12/20 09:20:33;;;;;;;27.58;4.20;;;6.60;99.90;;;;;;5036472;28;20041;-50
2023/12/20 09:22:58;;;;;;;16.95;3.50;;;6.60;99.90;;;;;;5030844;28;20097;-49
2023/12/20 09:25:25;;;;;;;14.18;4.38;;;6.70;99.90;;;;;;5035273;28;20033;-52
2023/12/20 09:27:52;;;;;;;19.08;6.15;;;6.70;99.90;;;;;;5034684;28;20334;-52
2023/12/20 09:30:18;;;;;;;19.65;4.10;;;6.80;99.90;;;;;;5034632;28;20020;-52
2023/12/20 09:32:44;;;;;;;18.08;4.70;;;6.80;99.90;;;;;;5035647;28;20100;-52
2023/12/20 09:35:09;;;;;;;25.88;5.20;;;6.80;99.90;;;;;;5033787;28;20030;-49
2023/12/20 09:37:35;;;;;;;21.23;5.13;;;6.80;99.90;;;;;;5018234;28;20125;-49
2023/12/20 09:40:00;;;;;;;14.80;4.60;;;6.80;99.90;;;;;;5016277;28;20178;-49
2023/12/20 09:43:03;;;;;;;15.48;4.45;;;6.80;99.90;;;;;;5015985;28;20025;-49
2023/12/20 09:45:31;;;;;;;16.58;3.95;;;6.90;99.90;;;;;;5007550;28;20064;-51
2023/12/20 09:47:58;;;;;;;26.98;5.70;;;7.00;99.90;;;;;;5033707;28;20025;-50
2023/12/20 09:50:24;;;;;;;19.33;4.60;;;7.00;99.90;;;;;;5035224;28;20370;-50
2023/12/20 09:52:51;;;;;;;21.02;5.18;;;7.10;99.90;;;;;;5017030;28;20048;-50
2023/12/20 09:55:21;;;;;;;20.95;5.30;;;7.10;99.90;;;;;;5034482;28;20040;-52
2023/12/20 09:57:47;;;;;;;18.40;5.10;;;7.00;99.90;;;;;;5035890;28;20025;-49
2023/12/20 10:00:14;;;;;;;11.98;4.32;;;7.00;99.90;;;;;;4999666;28;20344;-52
2023/12/20 10:03:03;;;;;;;12.65;4.45;;;7.00;99.90;;;;;;5033856;28;20052;-51
2023/12/20 10:05:31;;;;;;;18.27;4.20;;;7.00;99.90;;;;;;5033106;28;20083;-52
2023/12/20 10:07:57;;;;;;;17.67;4.18;;;7.00;99.90;;;;;;5033736;28;20024;-52
2023/12/20 10:10:23;;;;;;;11.45;3.88;;;6.90;99.90;;;;;;5035123;28;20021;-51
2023/12/20 10:13:06;;;;;;;16.85;4.00;;;6.90;99.90;;;;;;5035318;28;20021;-49
2023/12/20 10:15:35;;;;;;;15.95;5.15;;;6.90;99.90;;;;;;5036384;28;20025;-50
2023/12/20 10:18:01;;;;;;;16.80;4.82;;;6.90;99.90;;;;;;5029485;28;20437;-52
2023/12/20 10:20:28;;;;;;;16.63;4.13;;;6.90;99.90;;;;;;5036656;28;20059;-52
2023/12/20 10:22:55;;;;;;;17.45;4.47;;;6.90;99.90;;;;;;5035495;28;20033;-50
2023/12/20 10:25:21;;;;;;;15.13;4.15;;;6.90;99.90;;;;;;5031288;28;20029;-50
2023/12/20 10:27:47;;;;;;;13.20;3.78;;;6.90;99.90;;;;;;5035234;28;20021;-50
2023/12/20 10:30:14;;;;;;;16.33;4.55;;;6.90;99.90;;;;;;5031757;28;20127;-51
2023/12/20 10:32:40;;;;;;;13.73;4.18;;;6.90;99.90;;;;;;5036870;28;20027;-49
2023/12/20 10:35:07;;;;;;;19.30;4.47;;;6.90;99.90;;;;;;5032643;28;20018;-53
2023/12/20 10:37:36;;;;;;;16.02;3.72;;;6.90;99.90;;;;;;5032723;28;20071;-52
2023/12/20 10:40:04;;;;;;;14.80;3.80;;;7.00;99.90;;;;;;5029331;28;20025;-52
2023/12/20 10:42:30;;;;;;;17.70;3.75;;;7.10;99.90;;;;;;5036775;28;20096;-50
2023/12/20 10:44:58;;;;;;;17.00;4.63;;;7.10;99.90;;;;;;5035022;28;20025;-53
2023/12/20 10:47:26;;;;;;;16.08;4.43;;;7.20;99.90;;;;;;5017926;28;20048;-51
2023/12/20 10:49:56;;;;;;;16.65;4.72;;;7.20;99.90;;;;;;5030561;28;20029;-49
2023/12/20 10:52:24;;;;;;;17.23;4.63;;;7.10;99.90;;;;;;5027254;28;20021;-52
2023/12/20 10:54:50;;;;;;;19.08;4.80;;;7.20;99.90;;;;;;5026335;28;20039;-52
2023/12/20 10:57:17;;;;;;;16.13;4.47;;;7.10;99.90;;;;;;5026297;28;20021;-49
2023/12/20 10:59:47;;;;;;;19.30;4.13;;;7.10;99.90;;;;;;5027102;28;20060;-49
2023/12/20 11:02:13;;;;;;;13.93;4.07;;;7.10;99.90;;;;;;5027230;28;20030;-50
2023/12/20 11:04:53;;;;;;;15.00;3.92;;;7.10;99.90;;;;;;5026140;28;20036;-49
2023/12/20 11:07:45;;;;;;;15.80;4.65;;;7.10;99.90;;;;;;5024000;28;20379;-52
2023/12/20 11:10:19;;;;;;;20.98;3.70;;;7.20;99.90;;;;;;5027108;28;20550;-52
2023/12/20 11:13:01;;;;;;;20.33;5.18;;;7.20;99.90;;;;;;5026686;28;20033;-52
2023/12/20 11:15:28;;;;;;;17.02;4.00;;;7.20;99.90;;;;;;5026538;28;20495;-52
2023/12/20 11:17:58;;;;;;;15.07;4.30;;;7.30;99.90;;;;;;5013204;28;20475;-48
2023/12/20 11:20:38;;;;;;;15.75;3.92;;;7.30;99.90;;;;;;5027521;28;20056;-52
2023/12/20 11:23:05;;;;;;;14.25;4.35;;;7.30;99.90;;;;;;5030908;28;20483;-52
2023/12/20 11:25:51;;;;;;;19.50;3.67;;;7.30;99.90;;;;;;5030623;28;20068;-52
2023/12/20 11:28:21;;;;;;;19.27;3.88;;;7.30;99.90;;;;;;5014114;28;20026;-48
2023/12/20 11:30:54;;;;;;;14.73;3.60;;;7.30;99.90;;;;;;5030774;28;20021;-51
2023/12/20 11:33:24;;;;;;;20.23;3.97;;;7.30;99.90;;;;;;5030731;28;20032;-48
2023/12/20 11:35:50;;;;;;;14.63;4.25;;;7.30;99.90;;;;;;5029671;28;20021;-52
2023/12/20 11:38:16;;;;;;;14.77;4.35;;;7.20;99.90;;;;;;5031404;28;20385;-52
2023/12/20 11:40:43;;;;;;;25.35;3.85;;;7.30;99.90;;;;;;5031786;28;20049;-52
2023/12/20 11:43:09;;;;;;;20.30;4.32;;;7.20;99.90;;;;;;5031583;28;20364;-52
2023/12/20 11:45:34;;;;;;;17.27;3.90;;;7.30;99.90;;;;;;5014319;28;20071;-51
2023/12/20 11:48:02;;;;;;;12.23;3.65;;;7.20;99.90;;;;;;5037828;28;20025;-49
2023/12/20 11:50:29;;;;;;;16.50;4.70;;;7.30;99.90;;;;;;5023452;28;20441;-51
2023/12/20 11:52:55;;;;;;;11.40;3.80;;;7.20;99.90;;;;;;5040765;28;20017;-49
2023/12/20 11:55:24;;;;;;;12.65;3.25;;;7.30;99.90;;;;;;5040310;28;20051;-51
2023/12/20 11:57:51;;;;;;;14.80;4.43;;;7.20;99.90;;;;;;5042167;28;20334;-51
2023/12/20 12:00:18;;;;;;;11.48;3.95;;;7.30;99.90;;;;;;5021456;28;20028;-50
2023/12/20 12:02:43;;;;;;;13.93;4.57;;;7.20;99.90;;;;;;5039099;28;20509;-51
2023/12/20 12:05:09;;;;;;;14.02;4.90;;;7.10;99.90;;;;;;5034667;28;20105;-51
2023/12/20 12:07:35;;;;;;;10.27;3.30;;;7.10;99.90;;;;;;5041958;28;20052;-49
2023/12/20 12:10:01;;;;;;;8.80;3.70;;;7.00;99.90;;;;;;5040537;28;20052;-50
2023/12/20 12:12:27;;;;;;;8.82;3.70;;;7.00;99.90;;;;;;5041502;28;20068;-52
2023/12/20 12:14:54;;;;;;;11.57;3.63;;;7.00;99.90;;;;;;5023973;28;20052;-50
2023/12/20 12:17:19;;;;;;;13.05;3.65;;;6.90;99.90;;;;;;5039832;28;20024;-49
2023/12/20 12:19:45;;;;;;;12.02;2.83;;;6.90;99.90;;;;;;5038101;28;20025;-49
2023/12/20 12:22:14;;;;;;;7.40;1.30;;;6.80;99.90;;;;;;5039193;28;20533;-51
2023/12/20 12:24:43;;;;;;;8.63;1.20;;;6.30;99.90;;;;;;5027850;28;20036;-52
2023/12/20 12:27:10;;;;;;;6.68;1.02;;;6.00;99.90;;;;;;5029291;28;20021;-49
2023/12/20 12:29:36;;;;;;;4.82;1.27;;;5.80;99.90;;;;;;5029856;28;20391;-50
2023/12/20 12:32:06;;;;;;;2.45;0.90;;;5.70;99.90;;;;;;5013056;28;20120;-49
2023/12/20 12:34:34;;;;;;;6.80;1.13;;;5.70;99.90;;;;;;5032985;28;20444;-50
2023/12/20 12:36:59;;;;;;;5.18;1.40;;;5.60;99.90;;;;;;5040855;28;20127;-49
2023/12/20 12:39:25;;;;;;;3.55;1.40;;;5.60;99.90;;;;;;5041229;28;20104;-49
2023/12/20 12:41:51;;;;;;;3.67;1.50;;;5.70;99.90;;;;;;5037799;28;20052;-52
2023/12/20 12:44:17;;;;;;;5.60;1.38;;;5.60;99.90;;;;;;5035109;28;20399;-51